createdAt,value
2023-02-16T00:00:58.082Z,4.31
2023-02-16T00:02:02.348Z,4.50
2023-02-16T00:03:06.610Z,3.69
2023-02-16T00:04:21.004Z,5.69
2023-02-16T00:05:36.298Z,4.94
2023-02-16T00:06:49.152Z,6.19
2023-02-16T00:07:49.681Z,4.62
2023-02-16T00:08:55.862Z,5.00
2023-02-16T00:10:02.040Z,3.94
2023-02-16T00:11:06.027Z,4.31
2023-02-16T00:12:17.540Z,2.50
2023-02-16T00:13:28.499Z,2.44
2023-02-16T00:14:40.169Z,3.00
2023-02-16T00:15:44.408Z,3.81
2023-02-16T00:16:53.945Z,4.06
2023-02-16T00:18:01.276Z,2.94
2023-02-16T00:19:25.208Z,3.00
2023-02-16T00:20:32.678Z,2.87
2023-02-16T00:21:38.428Z,3.25
2023-02-16T00:22:42.684Z,4.56
2023-02-16T00:23:47.430Z,3.87
2023-02-16T00:24:53.712Z,3.50
2023-02-16T00:26:01.014Z,3.19
2023-02-16T00:27:17.327Z,3.25
2023-02-16T00:28:20.963Z,3.56
2023-02-16T00:29:30.944Z,3.44
2023-02-16T00:30:42.839Z,2.50
2023-02-16T00:31:52.217Z,3.44
2023-02-16T00:32:59.695Z,3.12
2023-02-16T00:34:21.402Z,3.62
2023-02-16T00:35:28.502Z,4.00
2023-02-16T00:36:34.143Z,5.56
2023-02-16T00:37:44.944Z,3.75
2023-02-16T00:38:52.462Z,4.37
2023-02-16T00:40:00.380Z,3.94
2023-02-16T00:41:10.448Z,5.00
2023-02-16T00:42:24.861Z,3.75
2023-02-16T00:43:40.308Z,3.81
2023-02-16T00:44:45.021Z,1.81
2023-02-16T00:46:00.713Z,3.69
2023-02-16T00:47:04.323Z,3.81
2023-02-16T00:48:10.258Z,4.12
2023-02-16T00:49:22.386Z,4.06
2023-02-16T00:50:35.746Z,2.87
2023-02-16T00:51:41.687Z,4.50
2023-02-16T00:52:50.357Z,5.75
2023-02-16T00:54:00.668Z,5.94
2023-02-16T00:55:12.369Z,3.12
2023-02-16T00:56:19.521Z,3.00
2023-02-16T00:57:26.498Z,3.62
2023-02-16T00:58:33.635Z,3.94
2023-02-16T00:59:41.070Z,3.27
2023-02-16T01:00:51.696Z,4.81
2023-02-16T01:01:57.677Z,3.69
2023-02-16T01:03:05.565Z,3.25
2023-02-16T01:04:12.913Z,4.25
2023-02-16T01:05:17.527Z,3.56
2023-02-16T01:06:23.334Z,2.69
2023-02-16T01:07:30.920Z,4.56
2023-02-16T01:08:42.414Z,3.25
2023-02-16T01:09:48.264Z,3.06
2023-02-16T01:10:58.727Z,3.69
2023-02-16T01:12:12.116Z,4.31
2023-02-16T01:13:18.594Z,3.12
2023-02-16T01:14:22.515Z,3.31
2023-02-16T01:15:27.457Z,4.62
2023-02-16T01:16:39.916Z,2.62
2023-02-16T01:17:47.415Z,2.37
2023-02-16T01:18:55.397Z,3.31
2023-02-16T01:20:00.010Z,2.81
2023-02-16T01:21:05.845Z,3.31
2023-02-16T01:22:14.815Z,3.87
2023-02-16T01:23:27.005Z,3.00
2023-02-16T01:24:37.638Z,4.25
2023-02-16T01:25:44.464Z,2.62
2023-02-16T01:26:55.352Z,2.31
2023-02-16T01:27:59.809Z,3.44
2023-02-16T01:29:06.809Z,3.25
2023-02-16T01:30:23.275Z,3.75
2023-02-16T01:31:32.093Z,2.62
2023-02-16T01:32:40.181Z,3.69
2023-02-16T01:33:43.340Z,3.50
2023-02-16T01:34:50.528Z,3.25
2023-02-16T01:35:57.159Z,3.31
2023-02-16T01:37:08.192Z,3.81
2023-02-16T01:38:22.494Z,1.37
2023-02-16T01:39:33.025Z,3.06
2023-02-16T01:40:43.596Z,3.12
2023-02-16T01:41:55.377Z,3.75
2023-02-16T01:43:26.371Z,2.25
2023-02-16T01:44:48.560Z,4.50
2023-02-16T01:46:06.237Z,4.75
2023-02-16T01:47:40.376Z,5.19
2023-02-16T01:48:49.113Z,5.06
2023-02-16T01:49:54.788Z,3.19
2023-02-16T01:51:25.425Z,3.44
2023-02-16T01:52:35.247Z,4.81
2023-02-16T01:53:51.129Z,4.56
2023-02-16T01:55:10.964Z,5.62
2023-02-16T01:56:19.631Z,5.00
2023-02-16T01:57:42.381Z,4.12
2023-02-16T01:58:54.706Z,4.12
2023-02-16T02:00:01.515Z,2.06
2023-02-16T02:01:21.944Z,4.31
2023-02-16T02:02:29.107Z,4.94
2023-02-16T02:03:35.444Z,4.87
2023-02-16T02:04:55.811Z,5.31
2023-02-16T02:06:01.968Z,4.69
2023-02-16T02:07:08.013Z,3.81
2023-02-16T02:08:29.761Z,5.00
2023-02-16T02:09:31.640Z,3.87
2023-02-16T02:10:52.677Z,7.50
2023-02-16T02:12:02.537Z,7.31
2023-02-16T02:13:32.555Z,13.87
2023-02-16T02:14:53.086Z,19.81
2023-02-16T02:15:49.427Z,6.69
2023-02-16T02:17:01.081Z,3.50
2023-02-16T02:18:09.541Z,4.94
2023-02-16T02:19:13.749Z,3.56
2023-02-16T02:20:26.972Z,4.19
2023-02-16T02:45:32.589Z,4.50
2023-02-16T02:46:43.190Z,4.50
2023-02-16T02:47:54.404Z,3.62
2023-02-16T02:48:58.708Z,3.06
2023-02-16T02:50:19.468Z,4.50
2023-02-16T02:51:17.914Z,5.12
2023-02-16T02:52:27.197Z,4.94
2023-02-16T02:53:32.194Z,3.94
2023-02-16T02:54:40.876Z,4.25
2023-02-16T02:55:49.886Z,4.06
2023-02-16T02:56:59.769Z,4.50
2023-02-16T02:58:06.625Z,3.94
2023-02-16T02:59:13.834Z,3.31
2023-02-16T03:00:24.563Z,3.00
2023-02-16T03:01:29.414Z,4.31
2023-02-16T03:02:37.273Z,3.06
2023-02-16T03:03:48.559Z,4.44
2023-02-16T03:04:55.613Z,4.19
2023-02-16T03:06:06.982Z,1.69
2023-02-16T03:07:15.173Z,2.69
2023-02-16T03:08:27.401Z,2.94
2023-02-16T03:09:29.285Z,3.31
2023-02-16T03:10:38.595Z,2.75
2023-02-16T03:11:44.799Z,2.94
2023-02-16T03:12:52.610Z,1.25
2023-02-16T03:14:01.244Z,5.19
2023-02-16T03:15:09.110Z,5.12
2023-02-16T03:16:15.471Z,8.06
2023-02-16T03:17:24.938Z,10.56
2023-02-16T03:18:34.827Z,25.12
2023-02-16T03:19:41.585Z,11.63
2023-02-16T03:20:47.910Z,25.25
2023-02-16T03:21:55.438Z,43.27
2023-02-16T03:23:05.959Z,33.63
2023-02-16T03:24:18.386Z,24.67
2023-02-16T03:25:28.550Z,25.75
2023-02-16T03:26:41.920Z,25.56
2023-02-16T03:27:49.064Z,25.94
2023-02-16T03:28:53.572Z,21.40
2023-02-16T03:30:00.283Z,22.53
2023-02-16T03:31:07.738Z,23.81
2023-02-16T03:32:13.940Z,17.67
2023-02-16T03:33:19.372Z,26.60
2023-02-16T03:34:24.615Z,28.06
2023-02-16T03:35:31.137Z,27.07
2023-02-16T03:36:39.676Z,28.38
2023-02-16T03:37:47.866Z,22.62
2023-02-16T03:39:03.745Z,16.69
2023-02-16T03:40:15.100Z,11.94
2023-02-16T03:41:19.333Z,5.94
2023-02-16T03:42:25.603Z,7.12
2023-02-16T03:43:32.252Z,3.62
2023-02-16T03:44:36.450Z,4.37
2023-02-16T03:45:43.965Z,7.00
2023-02-16T03:46:48.281Z,9.19
2023-02-16T03:47:55.953Z,8.25
2023-02-16T03:49:00.233Z,7.62
2023-02-16T03:50:07.300Z,8.19
2023-02-16T03:51:24.180Z,6.25
2023-02-16T03:52:27.744Z,4.25
2023-02-16T03:53:33.407Z,5.69
2023-02-16T03:54:39.093Z,6.19
2023-02-16T03:55:47.379Z,5.69
2023-02-16T03:56:51.804Z,4.00
2023-02-16T03:57:57.395Z,3.25
2023-02-16T03:59:04.546Z,5.75
2023-02-16T04:00:08.433Z,5.81
2023-02-16T04:01:18.796Z,5.81
2023-02-16T04:02:28.677Z,6.50
2023-02-16T04:03:46.926Z,7.87
2023-02-16T04:04:48.069Z,6.19
2023-02-16T04:06:41.400Z,6.75
2023-02-16T04:07:05.796Z,7.94
2023-02-16T04:08:10.854Z,6.87
2023-02-16T04:09:16.033Z,5.37
2023-02-16T04:10:22.066Z,7.87
2023-02-16T04:11:26.301Z,7.06
2023-02-16T04:12:39.027Z,7.87
2023-02-16T04:13:41.512Z,6.62
2023-02-16T04:14:48.303Z,5.94
2023-02-16T04:15:53.835Z,6.06
2023-02-16T04:16:57.914Z,7.00
2023-02-16T04:18:06.289Z,5.50
2023-02-16T04:19:19.145Z,5.44
2023-02-16T04:20:27.898Z,5.87
2023-02-16T04:21:35.331Z,5.56
2023-02-16T04:22:41.157Z,6.75
2023-02-16T04:23:45.358Z,4.75
2023-02-16T04:24:49.358Z,5.81
2023-02-16T04:25:55.305Z,5.69
2023-02-16T04:26:59.564Z,4.31
2023-02-16T04:28:03.736Z,5.25
2023-02-16T04:29:07.757Z,5.25
2023-02-16T04:30:19.074Z,6.31
2023-02-16T04:31:21.538Z,7.19
2023-02-16T04:32:26.765Z,5.62
2023-02-16T04:33:33.670Z,4.50
2023-02-16T04:34:37.695Z,5.00
2023-02-16T04:35:41.670Z,5.31
2023-02-16T04:36:45.870Z,5.12
2023-02-16T04:37:54.106Z,5.69
2023-02-16T04:38:58.105Z,8.63
2023-02-16T04:40:07.077Z,6.73
2023-02-16T04:41:16.815Z,7.44
2023-02-16T04:42:17.655Z,7.19
2023-02-16T04:43:22.088Z,6.60
2023-02-16T04:44:27.935Z,6.81
2023-02-16T04:45:35.151Z,7.56
2023-02-16T04:46:40.818Z,8.13
2023-02-16T04:47:49.747Z,7.19
2023-02-16T04:48:52.493Z,6.87
2023-02-16T04:49:58.241Z,5.19
2023-02-16T04:51:06.281Z,8.00
2023-02-16T04:52:17.753Z,6.25
2023-02-16T04:53:25.543Z,7.62
2023-02-16T04:54:31.088Z,7.50
2023-02-16T04:55:36.903Z,7.19
2023-02-16T04:56:51.660Z,6.62
2023-02-16T04:57:55.729Z,6.87
2023-02-16T04:59:01.118Z,6.94
2023-02-16T05:00:09.492Z,8.19
2023-02-16T05:01:28.428Z,10.06
2023-02-16T05:02:36.241Z,11.19
2023-02-16T05:03:42.100Z,9.06
2023-02-16T05:04:47.979Z,9.19
2023-02-16T05:05:52.129Z,9.13
2023-02-16T05:06:59.468Z,10.19
2023-02-16T05:08:11.038Z,11.31
2023-02-16T05:09:14.607Z,12.37
2023-02-16T05:10:31.817Z,11.25
2023-02-16T05:11:48.232Z,10.94
2023-02-16T05:12:52.012Z,10.44
2023-02-16T05:14:09.703Z,8.69
2023-02-16T05:15:31.110Z,11.19
2023-02-16T05:16:27.628Z,12.44
2023-02-16T05:17:35.165Z,11.56
2023-02-16T05:19:04.122Z,7.19
2023-02-16T05:20:13.254Z,10.56
2023-02-16T05:20:57.736Z,10.67
2023-02-16T05:22:03.739Z,10.69
2023-02-16T05:23:13.715Z,9.19
2023-02-16T05:24:23.833Z,9.56
2023-02-16T05:25:25.991Z,10.31
2023-02-16T05:26:32.304Z,8.75
2023-02-16T05:27:39.241Z,9.06
2023-02-16T05:29:00.204Z,8.94
2023-02-16T05:30:17.361Z,9.44
2023-02-16T05:31:04.518Z,11.56
2023-02-16T05:32:23.405Z,10.94
2023-02-16T05:33:17.614Z,12.88
2023-02-16T05:34:25.024Z,13.50
2023-02-16T05:35:30.216Z,12.94
2023-02-16T05:36:56.672Z,14.87
2023-02-16T05:38:06.006Z,14.50
2023-02-16T05:39:12.106Z,14.63
2023-02-16T05:40:17.986Z,17.62
2023-02-16T05:41:41.100Z,15.56
2023-02-16T05:42:37.472Z,13.87
2023-02-16T05:43:54.516Z,19.37
2023-02-16T05:44:58.561Z,18.19
2023-02-16T05:46:12.833Z,22.37
2023-02-16T05:47:15.055Z,21.62
2023-02-16T05:48:37.628Z,21.50
2023-02-16T05:49:55.679Z,20.12
2023-02-16T05:51:03.150Z,20.69
2023-02-16T05:52:25.131Z,21.81
2023-02-16T05:53:23.969Z,23.12
2023-02-16T05:55:56.810Z,21.31
2023-02-16T05:57:01.158Z,20.94
2023-02-16T05:58:12.092Z,21.25
2023-02-16T05:59:19.975Z,20.81
2023-02-16T06:00:24.572Z,16.50
2023-02-16T06:02:48.229Z,18.87
2023-02-16T06:38:28.531Z,12.19
2023-02-16T06:39:38.930Z,15.06
2023-02-16T06:40:47.421Z,13.00
2023-02-16T06:41:53.559Z,12.25
2023-02-16T06:43:03.566Z,14.25
2023-02-16T06:44:11.342Z,18.27
2023-02-16T06:45:15.452Z,16.69
2023-02-16T06:46:21.772Z,15.44
2023-02-16T06:47:27.574Z,14.75
2023-02-16T06:48:35.286Z,15.25
2023-02-16T06:49:47.604Z,17.60
2023-02-16T06:50:50.589Z,14.44
2023-02-16T06:51:59.926Z,15.31
2023-02-16T06:53:09.213Z,12.63
2023-02-16T06:54:16.817Z,14.67
2023-02-16T06:55:22.620Z,12.50
2023-02-16T06:56:38.733Z,14.38
2023-02-16T06:57:38.241Z,14.75
2023-02-16T06:58:44.181Z,15.88
2023-02-16T06:59:51.928Z,13.69
2023-02-16T07:01:05.219Z,16.69
2023-02-16T07:02:10.761Z,15.88
2023-02-16T07:03:25.261Z,12.63
2023-02-16T07:04:32.743Z,11.94
2023-02-16T07:07:11.868Z,13.87
2023-02-16T07:28:34.191Z,10.47
2023-02-16T07:29:38.486Z,13.93
2023-02-16T07:30:50.440Z,11.75
2023-02-16T07:31:56.657Z,12.27
2023-02-16T07:33:00.970Z,10.63
2023-02-16T07:34:09.847Z,13.69
2023-02-16T07:35:17.664Z,14.13
2023-02-16T07:36:22.202Z,17.31
2023-02-16T07:37:28.024Z,13.50
2023-02-16T07:38:37.214Z,6.37
2023-02-16T07:39:41.395Z,11.69
2023-02-16T07:40:45.693Z,9.31
2023-02-16T07:41:52.595Z,12.50
2023-02-16T07:42:58.337Z,11.12
2023-02-16T07:44:02.824Z,12.06
2023-02-16T07:45:08.804Z,9.75
2023-02-16T07:46:16.506Z,11.33
2023-02-16T07:47:23.575Z,11.12
2023-02-16T07:48:31.285Z,11.81
2023-02-16T07:49:40.625Z,11.06
2023-02-16T07:50:44.140Z,11.50
2023-02-16T07:51:48.245Z,12.81
2023-02-16T07:52:52.506Z,14.06
2023-02-16T07:53:57.162Z,12.20
2023-02-16T07:55:04.848Z,13.56
2023-02-16T07:56:28.928Z,13.13
2023-02-16T07:57:37.023Z,8.50
2023-02-16T08:18:58.595Z,14.50
2023-02-16T08:20:03.065Z,11.25
2023-02-16T08:21:19.486Z,13.88
2023-02-16T08:22:23.750Z,15.44
2023-02-16T08:23:27.906Z,12.31
2023-02-16T08:24:34.080Z,11.56
2023-02-16T08:25:41.762Z,11.31
2023-02-16T08:26:50.473Z,12.00
2023-02-16T08:27:56.035Z,20.25
2023-02-16T08:29:01.972Z,14.63
2023-02-16T08:30:07.014Z,13.47
2023-02-16T08:31:20.695Z,13.00
2023-02-16T08:32:26.927Z,13.07
2023-02-16T08:33:37.430Z,15.38
2023-02-16T08:34:43.713Z,11.88
2023-02-16T08:35:48.005Z,13.38
2023-02-16T08:36:56.262Z,12.25
2023-02-16T08:38:02.376Z,15.13
2023-02-16T08:39:19.255Z,15.80
2023-02-16T08:40:27.822Z,15.25
2023-02-16T08:41:34.129Z,14.93
2023-02-16T08:42:40.579Z,13.69
2023-02-16T08:43:48.694Z,17.69
2023-02-16T08:44:54.513Z,13.62
2023-02-16T08:46:00.164Z,13.13
2023-02-16T08:47:06.034Z,9.94
2023-02-16T08:48:14.005Z,11.25
2023-02-16T08:49:27.645Z,12.94
2023-02-16T08:50:31.474Z,14.00
2023-02-16T08:51:42.197Z,10.19
2023-02-16T08:52:53.305Z,10.81
2023-02-16T08:54:00.093Z,11.00
2023-02-16T08:55:08.106Z,15.56
2023-02-16T08:56:15.389Z,12.50
2023-02-16T08:57:19.668Z,10.31
2023-02-16T08:58:25.722Z,16.44
2023-02-16T08:59:32.426Z,14.56
2023-02-16T09:00:38.175Z,11.56
2023-02-16T09:01:47.389Z,8.06
2023-02-16T09:02:55.376Z,11.19
2023-02-16T09:04:03.263Z,11.94
2023-02-16T09:05:12.069Z,10.81
2023-02-16T09:06:26.775Z,8.44
2023-02-16T09:07:42.737Z,9.19
2023-02-16T09:08:41.517Z,10.38
2023-02-16T09:09:50.960Z,11.00
2023-02-16T09:10:56.155Z,21.93
2023-02-16T09:12:02.583Z,10.50
2023-02-16T09:13:13.101Z,12.50
2023-02-16T09:14:15.500Z,8.31
2023-02-16T09:15:23.161Z,10.75
2023-02-16T09:16:28.019Z,9.50
2023-02-16T09:17:35.675Z,9.56
2023-02-16T09:18:42.494Z,10.69
2023-02-16T09:19:46.440Z,10.00
2023-02-16T09:20:52.268Z,9.31
2023-02-16T09:22:01.120Z,8.88
2023-02-16T09:23:07.410Z,10.00
2023-02-16T09:24:11.980Z,8.94
2023-02-16T09:25:18.970Z,10.69
2023-02-16T09:26:32.320Z,9.06
2023-02-16T09:27:36.500Z,10.13
2023-02-16T09:28:42.024Z,9.81
2023-02-16T09:29:49.411Z,10.63
2023-02-16T09:30:56.514Z,10.56
2023-02-16T09:32:02.379Z,7.50
2023-02-16T09:33:08.202Z,8.25
2023-02-16T09:34:22.305Z,10.94
2023-02-16T09:35:28.691Z,9.31
2023-02-16T09:36:33.040Z,9.94
2023-02-16T09:37:40.686Z,8.19
2023-02-16T09:38:44.509Z,9.69
2023-02-16T09:39:48.726Z,12.19
2023-02-16T09:40:54.125Z,9.06
2023-02-16T09:42:13.231Z,10.50
2023-02-16T09:43:24.451Z,9.38
2023-02-16T09:44:37.645Z,9.69
2023-02-16T09:45:48.105Z,9.13
2023-02-16T09:46:54.298Z,9.69
2023-02-16T09:48:02.818Z,10.88
2023-02-16T09:49:11.691Z,9.44
2023-02-16T09:50:38.452Z,10.44
2023-02-16T09:51:34.825Z,9.81
2023-02-16T09:52:41.081Z,8.06
2023-02-16T09:53:51.955Z,9.88
2023-02-16T09:55:02.421Z,12.56
2023-02-16T09:56:29.567Z,10.44
2023-02-16T09:57:52.882Z,6.87
2023-02-16T09:59:25.287Z,7.12
2023-02-16T10:00:38.309Z,9.25
2023-02-16T10:02:00.245Z,7.69
2023-02-16T10:03:24.229Z,9.31
2023-02-16T10:04:44.611Z,8.00
2023-02-16T10:06:09.578Z,8.19
2023-02-16T10:07:21.609Z,8.00
2023-02-16T10:08:30.729Z,7.37
2023-02-16T10:09:36.443Z,5.87
2023-02-16T10:10:52.584Z,8.88
2023-02-16T10:12:00.225Z,9.38
2023-02-16T10:13:08.343Z,8.25
2023-02-16T10:14:34.890Z,8.44
2023-02-16T10:15:48.484Z,8.63
2023-02-16T10:17:21.183Z,8.06
2023-02-16T10:20:44.225Z,6.81
2023-02-16T10:21:51.417Z,7.50
2023-02-16T10:23:35.998Z,10.69
2023-02-16T10:24:50.422Z,10.88
2023-02-16T10:26:02.694Z,7.50
2023-02-16T10:27:12.030Z,8.06
2023-02-16T10:28:26.745Z,9.25
2023-02-16T10:29:33.954Z,5.62
2023-02-16T10:30:41.165Z,8.06
2023-02-16T10:32:08.680Z,7.12
2023-02-16T10:33:26.111Z,7.50
2023-02-16T10:34:45.223Z,4.31
2023-02-16T10:35:56.308Z,8.94
2023-02-16T10:37:20.943Z,9.25
2023-02-16T10:38:47.469Z,8.81
2023-02-16T10:40:29.247Z,9.88
2023-02-16T10:41:43.866Z,9.75
2023-02-16T10:43:02.870Z,9.19
2023-02-16T10:44:30.976Z,10.00
2023-02-16T10:45:56.229Z,7.62
2023-02-16T10:47:05.189Z,9.13
2023-02-16T10:48:11.520Z,10.00
2023-02-16T10:49:24.409Z,11.88
2023-02-16T10:50:46.455Z,8.69
2023-02-16T10:51:50.190Z,9.25
2023-02-16T10:52:58.958Z,7.44
2023-02-16T10:54:10.334Z,10.06
2023-02-16T10:55:14.511Z,10.63
2023-02-16T10:56:30.186Z,8.69
2023-02-16T10:57:32.019Z,10.44
2023-02-16T10:58:41.622Z,7.25
2023-02-16T11:00:04.130Z,9.56
2023-02-16T11:01:20.680Z,9.31
2023-02-16T11:02:31.926Z,10.06
2023-02-16T11:03:44.365Z,9.25
2023-02-16T11:04:51.844Z,8.63
2023-02-16T11:06:17.072Z,10.31
2023-02-16T11:07:24.391Z,10.44
2023-02-16T11:08:33.289Z,9.94
2023-02-16T11:09:42.432Z,10.00
2023-02-16T11:10:53.022Z,9.56
2023-02-16T11:12:05.882Z,7.50
2023-02-16T11:13:19.419Z,9.94
2023-02-16T11:14:28.573Z,7.62
2023-02-16T11:16:08.348Z,11.44
2023-02-16T11:17:24.328Z,8.75
2023-02-16T11:18:40.734Z,9.94
2023-02-16T11:19:55.145Z,9.56
2023-02-16T11:21:03.959Z,10.33
2023-02-16T11:22:10.382Z,11.12
2023-02-16T11:23:35.876Z,4.75
2023-02-16T11:24:44.195Z,9.25
2023-02-16T11:26:05.199Z,8.38
2023-02-16T11:27:19.901Z,7.12
2023-02-16T11:28:37.550Z,6.94
2023-02-16T11:29:44.754Z,8.44
2023-02-16T11:31:22.448Z,6.37
2023-02-16T11:32:15.911Z,8.56
2023-02-16T11:33:41.029Z,9.19
2023-02-16T11:34:54.462Z,9.69
2023-02-16T11:35:59.635Z,7.56
2023-02-16T11:37:11.697Z,8.94
2023-02-16T11:38:34.437Z,5.00
2023-02-16T11:39:50.571Z,8.00
2023-02-16T11:41:15.377Z,7.50
2023-02-16T11:42:25.692Z,9.19
2023-02-16T11:43:39.790Z,10.63
2023-02-16T11:46:35.603Z,9.63
2023-02-16T11:46:46.380Z,10.94
2023-02-16T11:47:42.788Z,6.87
2023-02-16T11:48:56.118Z,9.44
2023-02-16T11:50:31.080Z,2.31
2023-02-16T11:51:38.596Z,8.50
2023-02-16T11:53:00.881Z,5.19
2023-02-16T11:54:10.113Z,6.31
2023-02-16T11:55:25.001Z,6.50
2023-02-16T11:56:35.555Z,4.94
2023-02-16T11:57:43.021Z,8.06
2023-02-16T11:58:54.514Z,7.31
2023-02-16T12:00:11.573Z,6.50
2023-02-16T12:01:30.073Z,6.87
2023-02-16T12:02:56.121Z,5.69
2023-02-16T12:05:57.373Z,6.94
2023-02-16T12:07:45.814Z,7.75
2023-02-16T12:21:05.424Z,6.69
2023-02-16T12:22:30.988Z,7.19
2023-02-16T12:23:57.449Z,6.69
2023-02-16T12:25:18.225Z,7.69
2023-02-16T12:26:51.089Z,6.75
2023-02-16T12:27:58.372Z,8.38
2023-02-16T12:29:12.761Z,7.44
2023-02-16T12:30:55.023Z,7.50
2023-02-16T12:32:07.813Z,8.63
2023-02-16T12:33:36.085Z,8.06
2023-02-16T12:36:50.993Z,8.50
2023-02-16T12:39:22.213Z,2.44
2023-02-16T12:40:13.692Z,7.12
2023-02-16T12:41:51.769Z,11.31
2023-02-16T12:43:31.977Z,9.94
2023-02-16T12:45:38.872Z,7.75
2023-02-16T12:49:38.088Z,8.00
2023-02-16T12:50:53.417Z,9.75
2023-02-16T12:52:00.459Z,8.25
2023-02-16T12:53:20.630Z,8.44
2023-02-16T12:54:50.089Z,10.31
2023-02-16T12:55:55.742Z,8.00
2023-02-16T12:57:07.178Z,9.69
2023-02-16T12:58:23.184Z,10.00
2023-02-16T12:59:49.655Z,11.69
2023-02-16T13:00:59.562Z,12.94
2023-02-16T13:02:10.290Z,10.44
2023-02-16T13:03:38.283Z,10.25
2023-02-16T13:04:51.373Z,9.67
2023-02-16T13:06:11.105Z,10.38
2023-02-16T13:07:23.706Z,11.50
2023-02-16T13:08:52.833Z,12.13
2023-02-16T13:10:17.969Z,10.44
2023-02-16T13:13:31.659Z,14.44
2023-02-16T13:14:42.499Z,15.81
2023-02-16T13:15:56.191Z,14.00
2023-02-16T13:17:06.237Z,12.63
2023-02-16T13:18:40.954Z,15.19
2023-02-16T13:19:39.238Z,15.50
2023-02-16T13:21:11.144Z,15.07
2023-02-16T13:22:38.667Z,15.00
2023-02-16T13:24:11.977Z,17.25
2023-02-16T13:25:38.889Z,14.75
2023-02-16T13:26:58.432Z,18.80
2023-02-16T13:28:34.114Z,17.62
2023-02-16T13:29:56.328Z,17.19
2023-02-16T13:31:11.531Z,15.81
2023-02-16T13:32:25.298Z,16.75
2023-02-16T13:34:00.805Z,14.00
2023-02-16T13:35:10.530Z,19.73
2023-02-16T13:36:33.501Z,19.25
2023-02-16T13:38:10.540Z,17.69
2023-02-16T13:39:32.613Z,16.69
2023-02-16T13:41:09.265Z,16.56
2023-02-16T13:42:18.181Z,15.63
2023-02-16T13:43:43.192Z,18.31
2023-02-16T13:44:52.022Z,18.87
2023-02-16T13:46:10.915Z,16.73
2023-02-16T13:47:31.479Z,17.13
2023-02-16T13:48:54.456Z,17.31
2023-02-16T13:49:53.324Z,17.27
2023-02-16T13:51:30.539Z,14.13
2023-02-16T13:52:44.625Z,17.69
2023-02-16T13:53:59.677Z,14.19
2023-02-16T13:55:15.146Z,15.75
2023-02-16T13:56:26.458Z,14.94
2023-02-16T13:57:53.124Z,17.44
2023-02-16T13:59:00.610Z,13.50
2023-02-16T14:00:09.268Z,15.38
2023-02-16T14:01:35.503Z,16.12
2023-02-16T14:02:57.605Z,14.67
2023-02-16T14:04:06.126Z,11.93
2023-02-16T14:05:11.944Z,16.69
2023-02-16T14:06:32.782Z,14.44
2023-02-16T14:07:37.352Z,15.56
2023-02-16T14:08:44.475Z,10.81
2023-02-16T14:09:51.658Z,18.00
2023-02-16T14:11:00.439Z,15.20
2023-02-16T14:12:14.528Z,14.13
2023-02-16T14:13:32.762Z,19.69
2023-02-16T14:14:47.599Z,15.81
2023-02-16T14:15:58.267Z,17.12
2023-02-16T14:17:21.350Z,17.94
2023-02-16T14:18:55.806Z,20.07
2023-02-16T14:20:09.034Z,18.56
2023-02-16T14:23:35.824Z,17.94
2023-02-16T14:24:40.194Z,18.27
2023-02-16T14:25:44.711Z,16.37
2023-02-16T14:27:07.858Z,17.37
2023-02-16T14:28:33.097Z,16.25
2023-02-16T14:29:46.540Z,16.62
2023-02-16T14:31:05.749Z,16.93
2023-02-16T14:32:25.625Z,14.00
2023-02-16T14:33:45.863Z,15.19
2023-02-16T14:34:53.034Z,13.31
2023-02-16T14:36:04.673Z,15.00
2023-02-16T14:37:30.264Z,14.44
2023-02-16T14:38:37.012Z,15.07
2023-02-16T14:39:58.544Z,15.25
2023-02-16T14:41:02.565Z,14.69
2023-02-16T14:42:18.984Z,16.06
2023-02-16T14:43:43.979Z,15.00
2023-02-16T14:45:37.114Z,14.38
2023-02-16T14:46:53.573Z,17.56
2023-02-16T14:48:19.435Z,14.19
2023-02-16T14:49:52.330Z,15.56
2023-02-16T14:51:26.321Z,20.94
2023-02-16T14:52:36.357Z,19.27
2023-02-16T14:54:07.180Z,18.87
2023-02-16T14:55:30.981Z,19.31
2023-02-16T14:56:46.801Z,17.94
2023-02-16T14:58:05.852Z,19.00
2023-02-16T14:59:34.925Z,18.81
2023-02-16T15:01:07.641Z,15.88
2023-02-16T15:02:34.024Z,17.81
2023-02-16T15:03:45.458Z,19.12
2023-02-16T15:04:53.534Z,19.56
2023-02-16T15:06:12.828Z,18.62
2023-02-16T15:07:09.734Z,19.75
2023-02-16T15:08:25.089Z,16.44
2023-02-16T15:09:34.542Z,12.00
2023-02-16T15:10:52.514Z,19.94
2023-02-16T15:12:25.204Z,14.75
2023-02-16T15:13:15.879Z,15.50
2023-02-16T15:14:36.092Z,16.06
2023-02-16T15:15:52.084Z,19.56
2023-02-16T15:16:58.099Z,18.87
2023-02-16T15:18:04.106Z,18.00
2023-02-16T15:19:14.106Z,20.56
2023-02-16T15:20:40.727Z,20.62
2023-02-16T15:21:46.485Z,20.33
2023-02-16T15:22:57.135Z,21.56
2023-02-16T15:24:06.710Z,20.62
2023-02-16T15:25:31.319Z,18.20
2023-02-16T15:26:36.706Z,14.50
2023-02-16T15:27:43.979Z,14.44
2023-02-16T15:28:57.292Z,18.56
2023-02-16T15:30:23.360Z,17.44
2023-02-16T15:31:38.853Z,19.44
2023-02-16T15:32:46.152Z,16.31
2023-02-16T15:34:00.264Z,15.81
2023-02-16T15:35:13.313Z,18.07
2023-02-16T15:36:22.101Z,17.25
2023-02-16T15:37:32.360Z,18.12
2023-02-16T15:38:39.721Z,16.37
2023-02-16T15:39:58.030Z,18.25
2023-02-16T15:40:54.792Z,19.31
2023-02-16T15:42:14.129Z,21.50
2023-02-16T15:43:35.975Z,22.06
2023-02-16T15:44:41.618Z,25.27
2023-02-16T15:45:51.433Z,25.80
2023-02-16T15:47:07.686Z,25.20
2023-02-16T15:48:23.727Z,26.56
2023-02-16T15:49:33.610Z,26.40
2023-02-16T15:50:42.392Z,25.20
2023-02-16T15:51:48.318Z,28.87
2023-02-16T15:52:55.704Z,26.50
2023-02-16T15:54:18.147Z,24.13
2023-02-16T15:55:19.211Z,25.62
2023-02-16T15:56:49.393Z,24.56
2023-02-16T15:57:55.066Z,21.75
2023-02-16T15:59:07.745Z,22.13
2023-02-16T16:00:19.600Z,21.87
2023-02-16T16:01:31.732Z,20.44
2023-02-16T16:02:44.546Z,19.12
2023-02-16T16:03:50.904Z,17.67
2023-02-16T16:05:01.332Z,19.81
2023-02-16T16:06:15.289Z,18.93
2023-02-16T16:07:28.674Z,19.87
2023-02-16T16:08:34.232Z,17.27
2023-02-16T16:09:41.627Z,17.25
2023-02-16T16:10:51.718Z,15.69
2023-02-16T16:12:05.034Z,18.31
2023-02-16T16:13:17.951Z,14.75
2023-02-16T16:15:44.466Z,12.73
2023-02-16T16:16:50.890Z,20.73
2023-02-16T16:17:47.183Z,17.56
2023-02-16T16:18:04.349Z,13.06
2023-02-16T16:19:28.209Z,14.75
2023-02-16T16:23:38.764Z,15.07
2023-02-16T16:24:49.366Z,13.56
2023-02-16T16:26:06.126Z,11.38
2023-02-16T16:27:22.775Z,14.87
2023-02-16T16:28:30.975Z,15.38
2023-02-16T16:29:58.306Z,15.25
2023-02-16T16:31:17.248Z,16.25
2023-02-16T16:32:28.156Z,11.00
2023-02-16T16:34:15.254Z,14.31
2023-02-16T16:35:28.481Z,15.00
2023-02-16T16:36:43.573Z,14.73
2023-02-16T16:37:55.503Z,15.87
2023-02-16T16:39:31.957Z,14.60
2023-02-16T16:40:29.703Z,19.00
2023-02-16T16:41:39.807Z,18.00
2023-02-16T16:43:04.620Z,17.00
2023-02-16T16:44:13.840Z,14.63
2023-02-16T16:45:23.745Z,17.56
2023-02-16T16:48:01.692Z,16.87
2023-02-16T16:49:10.462Z,13.67
2023-02-16T16:50:39.421Z,13.75
2023-02-16T16:51:47.540Z,11.06
2023-02-16T16:52:52.447Z,17.00
2023-02-16T16:54:05.116Z,15.44
2023-02-16T16:55:24.065Z,14.69
2023-02-16T16:56:31.686Z,15.88
2023-02-16T16:57:36.939Z,17.73
2023-02-16T16:58:47.443Z,13.33
2023-02-16T17:00:02.860Z,22.07
2023-02-16T17:01:11.505Z,17.81
2023-02-16T17:02:26.838Z,15.40
2023-02-16T17:03:31.487Z,13.73
2023-02-16T17:04:42.040Z,11.69
2023-02-16T17:06:01.748Z,15.31
2023-02-16T17:07:17.993Z,18.37
2023-02-16T17:08:38.997Z,20.44
2023-02-16T17:09:36.304Z,21.56
2023-02-16T17:10:43.813Z,19.94
2023-02-16T17:11:53.951Z,18.50
2023-02-16T17:13:05.443Z,19.50
2023-02-16T17:14:20.776Z,24.94
2023-02-16T17:15:59.641Z,24.94
2023-02-16T17:17:07.972Z,23.25
2023-02-16T17:18:18.240Z,22.44
2023-02-16T17:19:34.802Z,22.87
2023-02-16T17:20:44.304Z,23.25
2023-02-16T17:22:09.415Z,17.87
2023-02-16T17:23:21.319Z,17.50
2023-02-16T17:24:37.198Z,17.06
2023-02-16T17:25:47.520Z,17.87
2023-02-16T17:26:54.913Z,20.53
2023-02-16T17:28:11.240Z,19.44
2023-02-16T17:29:22.268Z,17.87
2023-02-16T17:30:35.438Z,20.31
2023-02-16T17:31:50.546Z,20.93
2023-02-16T17:32:57.901Z,21.50
2023-02-16T17:34:07.191Z,20.81
2023-02-16T17:35:17.942Z,20.60
2023-02-16T17:36:25.928Z,17.75
2023-02-16T17:37:34.753Z,18.00
2023-02-16T17:38:40.816Z,18.62
2023-02-16T17:39:49.616Z,18.56
2023-02-16T17:40:56.287Z,19.06
2023-02-16T17:42:04.964Z,18.00
2023-02-16T17:43:21.617Z,13.69
2023-02-16T17:44:30.200Z,15.50
2023-02-16T17:45:40.458Z,15.75
2023-02-16T17:46:47.739Z,15.50
2023-02-16T17:47:57.221Z,15.00
2023-02-16T17:49:01.781Z,16.06
2023-02-16T17:50:13.494Z,18.37
2023-02-16T17:51:28.981Z,17.19
2023-02-16T17:52:33.751Z,16.25
2023-02-16T17:53:41.876Z,17.37